createdAt,value
2018-06-17T14:06:47.181Z,641.25
2018-06-17T14:10:54.065Z,691.88
2018-06-17T14:13:55.586Z,736.88
2018-06-17T14:16:53.893Z,736.88
2018-06-17T14:19:55.819Z,725.62
2018-06-17T14:22:53.832Z,714.38
2018-06-17T14:25:53.794Z,720.00
2018-06-17T14:28:53.851Z,753.75
2018-06-17T14:31:53.699Z,810.00
2018-06-17T14:34:53.798Z,871.88
2018-06-17T14:37:53.686Z,871.88
2018-06-17T14:42:06.579Z,911.25
2018-06-17T14:45:06.549Z,916.88
2018-06-17T14:48:06.496Z,911.25
2018-06-17T14:51:06.475Z,945.00
2018-06-17T14:54:18.270Z,1006.88
2018-06-17T14:57:06.410Z,1102.50
2018-06-17T15:00:06.361Z,1215.00
2018-06-17T15:03:08.484Z,1406.25
2018-06-17T15:06:06.423Z,1136.25
2018-06-17T15:09:07.442Z,928.12
2018-06-17T15:12:06.465Z,810.00
2018-06-17T15:15:17.036Z,838.12
2018-06-17T15:21:20.550Z,1006.88
2018-06-17T15:24:06.096Z,950.62
2018-06-17T15:27:06.077Z,821.25
2018-06-17T15:30:06.041Z,725.62
2018-06-17T15:33:06.011Z,697.50
2018-06-17T15:36:05.978Z,680.62
2018-06-17T15:39:05.961Z,607.50
2018-06-17T15:42:05.931Z,635.62
2018-06-17T15:45:05.889Z,871.88
2018-06-17T15:48:05.850Z,826.88
2018-06-17T15:51:05.808Z,787.50
2018-06-17T15:54:05.868Z,810.00
2018-06-17T15:57:05.791Z,742.50
2018-06-17T16:00:05.757Z,686.25
2018-06-17T16:03:05.735Z,641.25
2018-06-17T16:06:05.641Z,568.12
2018-06-17T16:09:05.670Z,630.00
2018-06-17T16:12:05.565Z,832.50
2018-06-17T16:15:05.575Z,900.00
2018-06-17T16:18:05.598Z,810.00
2018-06-17T16:21:05.489Z,624.38
2018-06-17T16:24:05.443Z,483.75
2018-06-17T16:27:05.440Z,421.88
2018-06-17T16:30:05.381Z,337.50
2018-06-17T16:33:05.374Z,388.12
2018-06-17T16:36:05.308Z,590.62
2018-06-17T16:39:05.285Z,720.00
2018-06-17T16:42:05.236Z,725.62
2018-06-17T16:45:05.241Z,680.62
2018-06-17T16:48:05.173Z,663.75
2018-06-17T16:51:05.161Z,641.25
2018-06-17T16:54:05.119Z,613.12
2018-06-17T16:57:05.086Z,573.75
2018-06-17T17:00:05.049Z,573.75
2018-06-17T17:03:05.020Z,573.75
2018-06-17T17:06:04.969Z,568.12
2018-06-17T17:09:05.012Z,590.62
2018-06-17T17:12:04.988Z,540.00
2018-06-17T17:15:04.986Z,433.12
2018-06-17T17:18:06.289Z,410.62
2018-06-17T17:21:04.853Z,433.12
2018-06-17T17:24:04.802Z,438.75
2018-06-17T17:27:04.809Z,562.50
2018-06-17T17:30:04.711Z,630.00
2018-06-17T17:33:04.714Z,658.12
2018-06-17T17:36:04.747Z,573.75
2018-06-17T17:39:04.614Z,517.50
2018-06-17T17:42:04.607Z,472.50
2018-06-17T17:45:06.047Z,489.38
2018-06-17T17:48:04.531Z,500.62
2018-06-17T17:51:04.501Z,360.00
2018-06-17T17:54:04.561Z,348.75
2018-06-17T17:57:04.423Z,343.12
2018-06-17T18:00:04.374Z,315.00
2018-06-17T18:03:04.389Z,286.88
2018-06-17T18:06:04.313Z,253.12
2018-06-17T18:09:04.298Z,230.62
2018-06-17T18:12:04.238Z,208.12
2018-06-17T18:15:04.290Z,196.88
2018-06-17T18:18:04.178Z,208.12
2018-06-17T18:21:04.167Z,219.38
2018-06-17T18:24:06.012Z,225.00
2018-06-17T18:27:04.087Z,185.62
2018-06-17T18:30:04.047Z,163.12
2018-06-17T18:33:04.046Z,135.00
2018-06-17T18:36:04.005Z,123.75
2018-06-17T18:39:03.939Z,90.00
2018-06-17T18:42:03.988Z,90.00
2018-06-17T18:45:05.669Z,84.38
2018-06-17T18:48:03.994Z,73.12
2018-06-17T18:51:03.901Z,73.12
2018-06-17T18:54:03.912Z,84.38
2018-06-17T18:57:03.909Z,78.75
2018-06-17T19:00:03.770Z,61.88
2018-06-17T19:03:03.711Z,45.00
2018-06-17T19:06:03.685Z,33.75
2018-06-17T19:09:03.759Z,22.50
2018-06-17T19:12:03.616Z,22.50
2018-06-17T19:15:03.601Z,22.50
2018-06-17T19:18:03.595Z,16.88
2018-06-17T19:21:03.534Z,11.25
2018-06-17T19:24:03.499Z,5.62
2018-06-17T19:27:03.509Z,5.62
2018-06-17T19:30:03.438Z,16.88
2018-06-17T19:33:03.526Z,28.12
2018-06-17T19:36:03.378Z,22.50
2018-06-17T19:39:03.357Z,16.88
2018-06-17T19:42:03.321Z,11.25
2018-06-17T19:45:03.312Z,11.25
2018-06-17T19:48:03.277Z,11.25
2018-06-17T19:51:03.199Z,11.25
2018-06-17T19:54:03.150Z,5.62
2018-06-17T19:57:27.313Z,5.62
2018-06-17T20:00:03.127Z,0.00
2018-06-17T20:03:03.192Z,0.00
2018-06-17T20:06:03.047Z,0.00
2018-06-17T20:09:02.995Z,0.00
2018-06-17T20:12:03.022Z,0.00
2018-06-17T20:15:02.960Z,0.00
2018-06-17T20:18:02.897Z,0.00
2018-06-17T20:21:02.901Z,0.00
2018-06-17T20:24:02.826Z,0.00
2018-06-17T20:27:02.770Z,0.00
2018-06-17T20:30:02.759Z,0.00
2018-06-17T20:33:02.834Z,0.00
2018-06-17T20:36:02.668Z,0.00
2018-06-17T20:39:02.685Z,0.00
2018-06-17T20:42:02.645Z,0.00
2018-06-17T20:45:04.211Z,0.00
2018-06-17T20:48:02.523Z,0.00
2018-06-17T20:51:02.499Z,0.00
2018-06-17T20:54:02.545Z,0.00
2018-06-17T20:57:02.465Z,0.00
2018-06-17T21:00:02.359Z,0.00
2018-06-17T21:03:02.404Z,0.00
2018-06-17T21:06:02.369Z,0.00
2018-06-17T21:09:02.340Z,0.00
2018-06-17T21:12:02.251Z,0.00
2018-06-17T21:15:02.272Z,0.00
2018-06-17T21:18:02.189Z,0.00
2018-06-17T21:21:02.136Z,0.00
2018-06-17T21:24:02.078Z,0.00
2018-06-17T21:27:02.091Z,0.00
2018-06-17T21:30:02.021Z,0.00
2018-06-17T21:33:02.061Z,0.00
2018-06-17T21:36:02.011Z,0.00
2018-06-17T21:39:02.029Z,0.00
2018-06-17T21:42:01.944Z,0.00
2018-06-17T21:45:01.923Z,0.00
2018-06-17T21:48:01.899Z,0.00
2018-06-17T21:51:01.893Z,0.00
2018-06-17T21:54:01.865Z,0.00
2018-06-17T21:57:01.799Z,0.00
2018-06-17T22:00:01.786Z,0.00
2018-06-17T22:03:01.713Z,0.00
2018-06-17T22:06:01.666Z,0.00
2018-06-17T22:09:01.584Z,0.00
2018-06-17T22:12:01.541Z,0.00
2018-06-17T22:15:01.583Z,0.00
2018-06-17T22:18:01.464Z,0.00
2018-06-17T22:21:01.509Z,0.00
2018-06-17T22:24:01.477Z,0.00
2018-06-17T22:27:01.417Z,0.00
2018-06-17T22:30:01.390Z,0.00
2018-06-17T22:33:01.351Z,0.00
2018-06-17T22:36:01.365Z,0.00
2018-06-17T22:39:01.371Z,0.00
2018-06-17T22:42:01.219Z,0.00
2018-06-17T22:45:01.330Z,0.00
2018-06-17T22:48:29.506Z,0.00
2018-06-17T22:51:01.212Z,0.00
2018-06-17T22:54:01.130Z,0.00
2018-06-17T22:57:01.081Z,0.00
2018-06-17T23:00:00.985Z,0.00
2018-06-17T23:03:01.028Z,0.00
2018-06-17T23:06:00.926Z,0.00
2018-06-17T23:09:00.978Z,0.00
2018-06-17T23:12:00.886Z,0.00
2018-06-17T23:15:00.866Z,0.00
2018-06-17T23:18:00.798Z,0.00
2018-06-17T23:21:00.914Z,0.00
2018-06-17T23:24:00.723Z,0.00
2018-06-17T23:27:00.773Z,0.00
2018-06-17T23:30:00.665Z,0.00
2018-06-17T23:33:00.720Z,0.00
2018-06-17T23:36:00.588Z,0.00
2018-06-17T23:39:00.595Z,0.00
2018-06-17T23:42:00.573Z,0.00
2018-06-17T23:45:00.497Z,0.00
2018-06-17T23:48:00.501Z,0.00
2018-06-17T23:51:00.480Z,0.00
2018-06-17T23:54:00.407Z,0.00
2018-06-17T23:57:00.389Z,0.00
